Portada
METAR-TAF:

METAR-TAF

Aeropuertos :

Menomonie Municipal Airport (Score Field)

Menomonie, Wisconsin, Estados Unidos

latitud: 44-53-32N, longitud: 091-52-04W, altitud: 273 m

Observación

El informe se hizo hace 32 minutos, a las 07:35 UTC
Viento 3 kt del este-sureste
Temperatura 7°C
Humedad 70%
Presión 1026 hPa
Visibilidad: 16.1 km
Cielo despejado

METAR: KLUM 310735Z AUTO 12003KT 10SM CLR 07/02 A3031 RMK AO2 T00670018

Hora: 03:07 (08:07 UTC)


TAF: falta

Observaciones y pronósticos meteorológicos de más de 4000 aeropuertos (mensajes METAR y TAF).

Los puntos amarillos y rojos representan las estaciones disponibles.

Ponga el ratón en el punto deseado para ver el nombre de la estación.

Haga clic para ver las observaciones y los pronósticos meteorológicos.

Para cambiar el mapa : haga clic en los botones verdes con una cruz de color negro para hacer un zoom, en el botón verde con un guión para alejar o en las flechas verdes para mapas adyacentes.


METAR-TAF: